sensor_id;sensor_type;location;lat;lon;timestamp;temperature;humidity
9837;DHT22;4957;51.412;6.724;2022-07-18T00:01:44;22.80;38.30
9837;DHT22;4957;51.412;6.724;2022-07-18T00:04:10;22.70;38.20
9837;DHT22;4957;51.412;6.724;2022-07-18T00:06:36;22.60;38.30
9837;DHT22;4957;51.412;6.724;2022-07-18T00:09:03;22.60;38.70
9837;DHT22;4957;51.412;6.724;2022-07-18T00:11:29;22.50;38.80
9837;DHT22;4957;51.412;6.724;2022-07-18T00:13:55;22.50;38.70
9837;DHT22;4957;51.412;6.724;2022-07-18T00:16:21;22.50;38.80
9837;DHT22;4957;51.412;6.724;2022-07-18T00:18:48;22.40;38.60
9837;DHT22;4957;51.412;6.724;2022-07-18T00:21:14;22.30;38.90
9837;DHT22;4957;51.412;6.724;2022-07-18T00:23:40;22.30;38.90
9837;DHT22;4957;51.412;6.724;2022-07-18T00:26:06;22.20;38.90
9837;DHT22;4957;51.412;6.724;2022-07-18T00:28:32;22.20;38.80
9837;DHT22;4957;51.412;6.724;2022-07-18T00:30:57;22.20;39.10
9837;DHT22;4957;51.412;6.724;2022-07-18T00:33:23;22.10;39.00
9837;DHT22;4957;51.412;6.724;2022-07-18T00:35:49;22.10;39.00
9837;DHT22;4957;51.412;6.724;2022-07-18T00:38:15;22.00;39.20
9837;DHT22;4957;51.412;6.724;2022-07-18T00:40:42;22.00;39.90
9837;DHT22;4957;51.412;6.724;2022-07-18T00:43:08;22.00;39.20
9837;DHT22;4957;51.412;6.724;2022-07-18T00:45:33;21.90;39.40
9837;DHT22;4957;51.412;6.724;2022-07-18T00:48:07;21.80;39.70
9837;DHT22;4957;51.412;6.724;2022-07-18T00:50:33;21.80;40.20
9837;DHT22;4957;51.412;6.724;2022-07-18T00:52:59;21.80;39.70
9837;DHT22;4957;51.412;6.724;2022-07-18T00:55:25;21.70;39.50
9837;DHT22;4957;51.412;6.724;2022-07-18T00:57:51;21.70;40.10
9837;DHT22;4957;51.412;6.724;2022-07-18T01:00:18;21.60;40.40
9837;DHT22;4957;51.412;6.724;2022-07-18T01:03:03;21.60;40.10
9837;DHT22;4957;51.412;6.724;2022-07-18T01:05:29;21.60;40.10
9837;DHT22;4957;51.412;6.724;2022-07-18T01:07:55;21.50;40.00
9837;DHT22;4957;51.412;6.724;2022-07-18T01:10:21;21.50;40.50
9837;DHT22;4957;51.412;6.724;2022-07-18T01:12:46;21.50;40.30
9837;DHT22;4957;51.412;6.724;2022-07-18T01:15:12;21.50;40.30
9837;DHT22;4957;51.412;6.724;2022-07-18T01:17:38;21.40;40.50
9837;DHT22;4957;51.412;6.724;2022-07-18T01:20:05;21.30;40.90
9837;DHT22;4957;51.412;6.724;2022-07-18T01:22:32;21.30;40.90
9837;DHT22;4957;51.412;6.724;2022-07-18T01:24:58;21.20;41.20
9837;DHT22;4957;51.412;6.724;2022-07-18T01:27:23;21.20;40.90
9837;DHT22;4957;51.412;6.724;2022-07-18T01:29:51;21.20;40.80
9837;DHT22;4957;51.412;6.724;2022-07-18T01:32:19;21.10;41.40
9837;DHT22;4957;51.412;6.724;2022-07-18T01:34:49;21.10;41.00
9837;DHT22;4957;51.412;6.724;2022-07-18T01:37:15;21.00;41.40
9837;DHT22;4957;51.412;6.724;2022-07-18T01:39:41;20.90;41.50
9837;DHT22;4957;51.412;6.724;2022-07-18T01:42:09;20.90;41.40
9837;DHT22;4957;51.412;6.724;2022-07-18T01:44:36;20.90;41.30
9837;DHT22;4957;51.412;6.724;2022-07-18T01:47:04;20.80;41.50
9837;DHT22;4957;51.412;6.724;2022-07-18T01:49:30;20.80;42.00
9837;DHT22;4957;51.412;6.724;2022-07-18T01:51:56;20.70;42.30
9837;DHT22;4957;51.412;6.724;2022-07-18T01:54:24;20.70;42.00
9837;DHT22;4957;51.412;6.724;2022-07-18T01:56:50;20.70;41.90
9837;DHT22;4957;51.412;6.724;2022-07-18T01:59:16;20.60;42.00
9837;DHT22;4957;51.412;6.724;2022-07-18T02:01:42;20.60;42.60
9837;DHT22;4957;51.412;6.724;2022-07-18T02:04:08;20.60;42.00
9837;DHT22;4957;51.412;6.724;2022-07-18T02:06:33;20.50;42.00
9837;DHT22;4957;51.412;6.724;2022-07-18T02:08:59;20.50;41.90
9837;DHT22;4957;51.412;6.724;2022-07-18T02:11:25;20.40;42.10
9837;DHT22;4957;51.412;6.724;2022-07-18T02:13:51;20.40;42.20
9837;DHT22;4957;51.412;6.724;2022-07-18T02:16:17;20.30;42.40
9837;DHT22;4957;51.412;6.724;2022-07-18T02:18:43;20.20;42.30
9837;DHT22;4957;51.412;6.724;2022-07-18T02:21:10;20.20;42.30
9837;DHT22;4957;51.412;6.724;2022-07-18T02:23:36;20.20;43.30
9837;DHT22;4957;51.412;6.724;2022-07-18T02:26:03;20.20;43.20
9837;DHT22;4957;51.412;6.724;2022-07-18T02:28:29;20.20;43.40
9837;DHT22;4957;51.412;6.724;2022-07-18T02:30:55;20.10;42.70
9837;DHT22;4957;51.412;6.724;2022-07-18T02:33:20;20.10;42.80
9837;DHT22;4957;51.412;6.724;2022-07-18T02:35:46;20.10;42.80
9837;DHT22;4957;51.412;6.724;2022-07-18T02:38:12;20.00;43.10
9837;DHT22;4957;51.412;6.724;2022-07-18T02:40:38;20.00;43.30
9837;DHT22;4957;51.412;6.724;2022-07-18T02:43:04;19.90;43.50
9837;DHT22;4957;51.412;6.724;2022-07-18T02:45:29;19.90;43.70
9837;DHT22;4957;51.412;6.724;2022-07-18T02:47:55;19.90;43.60
9837;DHT22;4957;51.412;6.724;2022-07-18T02:50:21;19.80;43.40
9837;DHT22;4957;51.412;6.724;2022-07-18T02:52:47;19.70;43.40
9837;DHT22;4957;51.412;6.724;2022-07-18T02:55:14;19.70;43.90
9837;DHT22;4957;51.412;6.724;2022-07-18T02:57:40;19.70;44.10
9837;DHT22;4957;51.412;6.724;2022-07-18T03:00:12;19.70;44.10
9837;DHT22;4957;51.412;6.724;2022-07-18T03:02:38;19.60;44.20
9837;DHT22;4957;51.412;6.724;2022-07-18T03:05:05;19.60;44.30
9837;DHT22;4957;51.412;6.724;2022-07-18T03:07:31;19.50;44.70
9837;DHT22;4957;51.412;6.724;2022-07-18T03:09:57;19.50;45.10
9837;DHT22;4957;51.412;6.724;2022-07-18T03:12:23;19.50;45.00
9837;DHT22;4957;51.412;6.724;2022-07-18T03:14:49;19.40;44.70
9837;DHT22;4957;51.412;6.724;2022-07-18T03:17:15;19.40;45.00
9837;DHT22;4957;51.412;6.724;2022-07-18T03:19:41;19.30;45.70
9837;DHT22;4957;51.412;6.724;2022-07-18T03:22:06;19.30;46.00
9837;DHT22;4957;51.412;6.724;2022-07-18T03:24:32;19.30;46.00
9837;DHT22;4957;51.412;6.724;2022-07-18T03:26:59;19.20;46.30
9837;DHT22;4957;51.412;6.724;2022-07-18T03:29:26;19.20;46.70
9837;DHT22;4957;51.412;6.724;2022-07-18T03:31:52;19.20;47.20
9837;DHT22;4957;51.412;6.724;2022-07-18T03:34:18;19.20;47.00
9837;DHT22;4957;51.412;6.724;2022-07-18T03:36:44;19.10;47.40
9837;DHT22;4957;51.412;6.724;2022-07-18T03:39:10;19.10;47.90
9837;DHT22;4957;51.412;6.724;2022-07-18T03:41:36;19.00;47.60
9837;DHT22;4957;51.412;6.724;2022-07-18T03:44:03;19.00;47.00
9837;DHT22;4957;51.412;6.724;2022-07-18T03:46:30;19.00;47.20
9837;DHT22;4957;51.412;6.724;2022-07-18T03:48:56;18.90;47.00
9837;DHT22;4957;51.412;6.724;2022-07-18T03:51:22;18.80;47.10
9837;DHT22;4957;51.412;6.724;2022-07-18T03:53:47;18.80;47.30
9837;DHT22;4957;51.412;6.724;2022-07-18T03:56:13;18.70;47.70
9837;DHT22;4957;51.412;6.724;2022-07-18T03:58:39;18.70;48.30
9837;DHT22;4957;51.412;6.724;2022-07-18T04:01:05;18.70;48.50
9837;DHT22;4957;51.412;6.724;2022-07-18T04:03:31;18.70;48.70
9837;DHT22;4957;51.412;6.724;2022-07-18T04:05:56;18.70;49.00
9837;DHT22;4957;51.412;6.724;2022-07-18T04:08:22;18.70;49.00
9837;DHT22;4957;51.412;6.724;2022-07-18T04:10:48;18.60;49.00
9837;DHT22;4957;51.412;6.724;2022-07-18T04:13:14;18.60;49.00
9837;DHT22;4957;51.412;6.724;2022-07-18T04:15:40;18.60;49.20
9837;DHT22;4957;51.412;6.724;2022-07-18T04:18:06;18.60;49.40
9837;DHT22;4957;51.412;6.724;2022-07-18T04:20:33;18.60;49.50
9837;DHT22;4957;51.412;6.724;2022-07-18T04:23:03;18.60;49.60
9837;DHT22;4957;51.412;6.724;2022-07-18T04:25:38;18.50;49.70
9837;DHT22;4957;51.412;6.724;2022-07-18T04:28:06;18.50;50.10
9837;DHT22;4957;51.412;6.724;2022-07-18T04:30:33;18.50;50.00
9837;DHT22;4957;51.412;6.724;2022-07-18T04:33:02;18.50;49.60
9837;DHT22;4957;51.412;6.724;2022-07-18T04:35:28;18.50;49.80
9837;DHT22;4957;51.412;6.724;2022-07-18T04:37:53;18.50;49.80
9837;DHT22;4957;51.412;6.724;2022-07-18T04:40:19;18.50;50.10
9837;DHT22;4957;51.412;6.724;2022-07-18T04:42:46;18.50;50.00
9837;DHT22;4957;51.412;6.724;2022-07-18T04:45:12;18.50;50.10
9837;DHT22;4957;51.412;6.724;2022-07-18T04:47:39;18.50;50.50
9837;DHT22;4957;51.412;6.724;2022-07-18T04:50:05;18.50;50.80
9837;DHT22;4957;51.412;6.724;2022-07-18T04:52:43;18.50;51.10
9837;DHT22;4957;51.412;6.724;2022-07-18T04:55:10;18.50;51.90
9837;DHT22;4957;51.412;6.724;2022-07-18T04:57:36;18.50;51.10
9837;DHT22;4957;51.412;6.724;2022-07-18T05:00:10;18.50;51.30
9837;DHT22;4957;51.412;6.724;2022-07-18T05:02:44;18.50;51.90
9837;DHT22;4957;51.412;6.724;2022-07-18T05:05:11;18.50;52.20
9837;DHT22;4957;51.412;6.724;2022-07-18T05:07:38;18.50;52.40
9837;DHT22;4957;51.412;6.724;2022-07-18T05:10:05;18.50;52.90
9837;DHT22;4957;51.412;6.724;2022-07-18T05:12:40;18.50;53.50
9837;DHT22;4957;51.412;6.724;2022-07-18T05:15:07;18.60;53.80
9837;DHT22;4957;51.412;6.724;2022-07-18T05:17:33;18.60;54.00
9837;DHT22;4957;51.412;6.724;2022-07-18T05:19:58;18.70;54.00
9837;DHT22;4957;51.412;6.724;2022-07-18T05:22:24;18.70;53.90
9837;DHT22;4957;51.412;6.724;2022-07-18T05:24:50;18.80;53.40
9837;DHT22;4957;51.412;6.724;2022-07-18T05:27:16;18.90;53.10
9837;DHT22;4957;51.412;6.724;2022-07-18T05:29:42;19.00;52.90
9837;DHT22;4957;51.412;6.724;2022-07-18T05:32:08;19.00;52.50
9837;DHT22;4957;51.412;6.724;2022-07-18T05:34:34;19.10;52.80
9837;DHT22;4957;51.412;6.724;2022-07-18T05:37:00;19.20;52.40
9837;DHT22;4957;51.412;6.724;2022-07-18T05:39:26;19.30;52.20
9837;DHT22;4957;51.412;6.724;2022-07-18T05:41:52;19.40;52.50
9837;DHT22;4957;51.412;6.724;2022-07-18T05:44:18;19.50;52.30
9837;DHT22;4957;51.412;6.724;2022-07-18T05:46:47;19.60;52.20
9837;DHT22;4957;51.412;6.724;2022-07-18T05:49:14;19.70;52.20
9837;DHT22;4957;51.412;6.724;2022-07-18T05:51:39;19.90;52.10
9837;DHT22;4957;51.412;6.724;2022-07-18T05:54:05;20.00;52.10
9837;DHT22;4957;51.412;6.724;2022-07-18T05:56:31;20.20;51.60
9837;DHT22;4957;51.412;6.724;2022-07-18T05:58:57;20.20;51.10
9837;DHT22;4957;51.412;6.724;2022-07-18T06:01:24;20.40;50.70
9837;DHT22;4957;51.412;6.724;2022-07-18T06:03:49;20.50;50.30
9837;DHT22;4957;51.412;6.724;2022-07-18T06:06:15;20.70;50.10
9837;DHT22;4957;51.412;6.724;2022-07-18T06:08:42;20.80;49.60
9837;DHT22;4957;51.412;6.724;2022-07-18T06:11:08;20.90;49.20
9837;DHT22;4957;51.412;6.724;2022-07-18T06:13:35;21.10;48.80
9837;DHT22;4957;51.412;6.724;2022-07-18T06:16:02;21.30;48.30
9837;DHT22;4957;51.412;6.724;2022-07-18T06:18:28;21.40;48.00
9837;DHT22;4957;51.412;6.724;2022-07-18T06:20:54;21.60;47.60
9837;DHT22;4957;51.412;6.724;2022-07-18T06:23:19;21.70;47.20
9837;DHT22;4957;51.412;6.724;2022-07-18T06:25:45;21.90;46.90
9837;DHT22;4957;51.412;6.724;2022-07-18T06:28:11;22.10;46.70
9837;DHT22;4957;51.412;6.724;2022-07-18T06:30:36;22.20;46.50
9837;DHT22;4957;51.412;6.724;2022-07-18T06:33:02;22.40;46.50
9837;DHT22;4957;51.412;6.724;2022-07-18T06:35:31;22.60;46.30
9837;DHT22;4957;51.412;6.724;2022-07-18T06:37:57;22.80;46.10
9837;DHT22;4957;51.412;6.724;2022-07-18T06:40:23;23.00;45.60
9837;DHT22;4957;51.412;6.724;2022-07-18T06:42:51;23.20;45.20
9837;DHT22;4957;51.412;6.724;2022-07-18T06:45:17;23.30;44.80
9837;DHT22;4957;51.412;6.724;2022-07-18T06:47:43;23.60;44.40
9837;DHT22;4957;51.412;6.724;2022-07-18T06:50:10;23.80;44.20
9837;DHT22;4957;51.412;6.724;2022-07-18T06:52:38;23.90;43.80
9837;DHT22;4957;51.412;6.724;2022-07-18T06:55:05;24.10;43.70
9837;DHT22;4957;51.412;6.724;2022-07-18T06:57:31;24.30;43.30
9837;DHT22;4957;51.412;6.724;2022-07-18T06:59:57;24.50;43.20
9837;DHT22;4957;51.412;6.724;2022-07-18T07:02:22;24.70;42.80
9837;DHT22;4957;51.412;6.724;2022-07-18T07:04:48;24.90;42.70
9837;DHT22;4957;51.412;6.724;2022-07-18T07:07:14;25.10;42.20
9837;DHT22;4957;51.412;6.724;2022-07-18T07:09:40;25.40;41.70
9837;DHT22;4957;51.412;6.724;2022-07-18T07:12:05;25.60;41.40
9837;DHT22;4957;51.412;6.724;2022-07-18T07:14:31;25.80;41.00
9837;DHT22;4957;51.412;6.724;2022-07-18T07:16:57;26.00;40.50
9837;DHT22;4957;51.412;6.724;2022-07-18T07:19:23;26.20;39.90
9837;DHT22;4957;51.412;6.724;2022-07-18T07:21:48;26.40;39.50
9837;DHT22;4957;51.412;6.724;2022-07-18T07:24:14;26.70;39.20
9837;DHT22;4957;51.412;6.724;2022-07-18T07:26:40;26.90;38.70
9837;DHT22;4957;51.412;6.724;2022-07-18T07:29:05;27.10;38.20
9837;DHT22;4957;51.412;6.724;2022-07-18T07:31:31;27.30;37.90
9837;DHT22;4957;51.412;6.724;2022-07-18T07:33:57;27.50;37.80
9837;DHT22;4957;51.412;6.724;2022-07-18T07:36:22;27.80;37.60
9837;DHT22;4957;51.412;6.724;2022-07-18T07:38:48;28.00;37.30
9837;DHT22;4957;51.412;6.724;2022-07-18T07:41:14;28.20;36.90
9837;DHT22;4957;51.412;6.724;2022-07-18T07:43:40;28.40;36.30
9837;DHT22;4957;51.412;6.724;2022-07-18T07:46:06;28.70;36.20
9837;DHT22;4957;51.412;6.724;2022-07-18T07:48:32;28.90;35.90
9837;DHT22;4957;51.412;6.724;2022-07-18T07:50:58;29.20;35.40
9837;DHT22;4957;51.412;6.724;2022-07-18T07:53:24;29.40;35.10
9837;DHT22;4957;51.412;6.724;2022-07-18T07:55:49;29.60;34.60
9837;DHT22;4957;51.412;6.724;2022-07-18T07:58:15;29.80;34.30
9837;DHT22;4957;51.412;6.724;2022-07-18T08:00:41;30.00;34.00
9837;DHT22;4957;51.412;6.724;2022-07-18T08:03:07;30.20;33.70
9837;DHT22;4957;51.412;6.724;2022-07-18T08:05:38;30.40;33.60
9837;DHT22;4957;51.412;6.724;2022-07-18T08:08:05;30.70;33.60
9837;DHT22;4957;51.412;6.724;2022-07-18T08:10:31;30.80;33.20
9837;DHT22;4957;51.412;6.724;2022-07-18T08:12:57;31.10;32.70
9837;DHT22;4957;51.412;6.724;2022-07-18T08:15:24;31.30;32.30
9837;DHT22;4957;51.412;6.724;2022-07-18T08:17:50;31.50;32.00
9837;DHT22;4957;51.412;6.724;2022-07-18T08:20:16;31.70;31.60
9837;DHT22;4957;51.412;6.724;2022-07-18T08:23:02;32.00;31.50
9837;DHT22;4957;51.412;6.724;2022-07-18T08:25:29;32.20;31.10
9837;DHT22;4957;51.412;6.724;2022-07-18T08:27:56;32.40;31.20
9837;DHT22;4957;51.412;6.724;2022-07-18T08:30:22;32.60;30.70
9837;DHT22;4957;51.412;6.724;2022-07-18T08:32:48;32.90;30.30
9837;DHT22;4957;51.412;6.724;2022-07-18T08:35:14;33.00;30.00
9837;DHT22;4957;51.412;6.724;2022-07-18T08:37:40;33.30;29.70
9837;DHT22;4957;51.412;6.724;2022-07-18T08:40:06;33.50;29.30
9837;DHT22;4957;51.412;6.724;2022-07-18T08:42:33;33.80;29.00
9837;DHT22;4957;51.412;6.724;2022-07-18T08:44:59;34.00;28.80
9837;DHT22;4957;51.412;6.724;2022-07-18T08:47:27;34.20;28.80
9837;DHT22;4957;51.412;6.724;2022-07-18T08:49:54;34.40;28.60
9837;DHT22;4957;51.412;6.724;2022-07-18T08:52:20;34.60;28.20
9837;DHT22;4957;51.412;6.724;2022-07-18T08:54:46;34.80;28.20
9837;DHT22;4957;51.412;6.724;2022-07-18T08:57:15;35.10;27.90
9837;DHT22;4957;51.412;6.724;2022-07-18T08:59:41;35.30;28.20
9837;DHT22;4957;51.412;6.724;2022-07-18T09:02:07;35.50;27.50
9837;DHT22;4957;51.412;6.724;2022-07-18T09:04:39;35.70;27.40
9837;DHT22;4957;51.412;6.724;2022-07-18T09:07:06;35.90;27.10
9837;DHT22;4957;51.412;6.724;2022-07-18T09:09:37;36.10;26.80
9837;DHT22;4957;51.412;6.724;2022-07-18T09:12:07;36.30;26.50
9837;DHT22;4957;51.412;6.724;2022-07-18T09:14:43;36.50;26.20
9837;DHT22;4957;51.412;6.724;2022-07-18T09:17:26;36.70;25.90
9837;DHT22;4957;51.412;6.724;2022-07-18T09:20:13;36.90;25.90
9837;DHT22;4957;51.412;6.724;2022-07-18T09:22:44;37.20;25.50
9837;DHT22;4957;51.412;6.724;2022-07-18T09:25:22;37.40;25.90
9837;DHT22;4957;51.412;6.724;2022-07-18T09:27:54;37.50;25.50
9837;DHT22;4957;51.412;6.724;2022-07-18T09:30:28;37.80;25.30
9837;DHT22;4957;51.412;6.724;2022-07-18T09:35:31;38.10;24.90
9837;DHT22;4957;51.412;6.724;2022-07-18T09:40:32;38.50;24.40
9837;DHT22;4957;51.412;6.724;2022-07-18T09:43:05;38.70;24.40
9837;DHT22;4957;51.412;6.724;2022-07-18T09:48:15;39.00;23.70
9837;DHT22;4957;51.412;6.724;2022-07-18T09:50:56;39.20;23.60
9837;DHT22;4957;51.412;6.724;2022-07-18T09:53:30;39.40;23.30
9837;DHT22;4957;51.412;6.724;2022-07-18T09:58:31;39.70;22.90
9837;DHT22;4957;51.412;6.724;2022-07-18T10:00:58;39.90;22.70
9837;DHT22;4957;51.412;6.724;2022-07-18T10:03:25;40.10;22.20
9837;DHT22;4957;51.412;6.724;2022-07-18T10:05:52;40.30;22.00
9837;DHT22;4957;51.412;6.724;2022-07-18T10:08:23;40.50;22.10
9837;DHT22;4957;51.412;6.724;2022-07-18T10:10:52;40.60;21.70
9837;DHT22;4957;51.412;6.724;2022-07-18T10:13:19;40.80;21.60
9837;DHT22;4957;51.412;6.724;2022-07-18T10:15:47;41.00;21.70
9837;DHT22;4957;51.412;6.724;2022-07-18T10:18:15;41.10;21.50
9837;DHT22;4957;51.412;6.724;2022-07-18T10:20:47;41.40;21.50
9837;DHT22;4957;51.412;6.724;2022-07-18T10:23:40;41.50;21.20
9837;DHT22;4957;51.412;6.724;2022-07-18T10:31:22;42.10;20.60
9837;DHT22;4957;51.412;6.724;2022-07-18T10:33:48;42.20;20.80
9837;DHT22;4957;51.412;6.724;2022-07-18T10:44:35;42.90;20.40
9837;DHT22;4957;51.412;6.724;2022-07-18T10:47:12;43.10;20.00
9837;DHT22;4957;51.412;6.724;2022-07-18T10:57:33;43.70;19.70
9837;DHT22;4957;51.412;6.724;2022-07-18T11:00:09;43.80;19.40
9837;DHT22;4957;51.412;6.724;2022-07-18T11:02:41;44.00;19.20
9837;DHT22;4957;51.412;6.724;2022-07-18T11:21:26;44.90;18.50
9837;DHT22;4957;51.412;6.724;2022-07-18T11:24:00;45.00;18.30
9837;DHT22;4957;51.412;6.724;2022-07-18T11:26:26;45.20;18.90
9837;DHT22;4957;51.412;6.724;2022-07-18T11:28:59;45.30;18.80
9837;DHT22;4957;51.412;6.724;2022-07-18T11:31:26;45.40;18.20
9837;DHT22;4957;51.412;6.724;2022-07-18T11:33:52;45.50;18.30
9837;DHT22;4957;51.412;6.724;2022-07-18T11:36:19;45.60;18.10
9837;DHT22;4957;51.412;6.724;2022-07-18T11:38:54;45.70;18.10
9837;DHT22;4957;51.412;6.724;2022-07-18T11:41:21;45.80;17.80
9837;DHT22;4957;51.412;6.724;2022-07-18T11:43:48;45.90;18.00
9837;DHT22;4957;51.412;6.724;2022-07-18T11:46:16;45.90;18.00
9837;DHT22;4957;51.412;6.724;2022-07-18T11:48:59;46.00;17.50
9837;DHT22;4957;51.412;6.724;2022-07-18T11:51:32;46.00;17.40
9837;DHT22;4957;51.412;6.724;2022-07-18T11:53:58;45.90;17.60
9837;DHT22;4957;51.412;6.724;2022-07-18T11:56:24;45.90;17.50
9837;DHT22;4957;51.412;6.724;2022-07-18T11:58:50;45.80;17.50
9837;DHT22;4957;51.412;6.724;2022-07-18T12:01:17;45.80;17.50
9837;DHT22;4957;51.412;6.724;2022-07-18T12:03:45;45.80;17.60
9837;DHT22;4957;51.412;6.724;2022-07-18T12:06:13;45.80;17.50
9837;DHT22;4957;51.412;6.724;2022-07-18T12:08:44;45.80;17.40
9837;DHT22;4957;51.412;6.724;2022-07-18T12:13:52;45.60;17.40
9837;DHT22;4957;51.412;6.724;2022-07-18T12:16:38;45.50;17.50
9837;DHT22;4957;51.412;6.724;2022-07-18T12:19:09;45.40;17.30
9837;DHT22;4957;51.412;6.724;2022-07-18T12:24:34;45.10;17.50
9837;DHT22;4957;51.412;6.724;2022-07-18T12:32:50;44.80;17.80
9837;DHT22;4957;51.412;6.724;2022-07-18T12:37:59;44.80;18.20
9837;DHT22;4957;51.412;6.724;2022-07-18T12:43:28;44.90;17.90
9837;DHT22;4957;51.412;6.724;2022-07-18T12:45:55;45.00;18.30
9837;DHT22;4957;51.412;6.724;2022-07-18T12:48:22;45.10;18.10
9837;DHT22;4957;51.412;6.724;2022-07-18T12:53:29;45.30;17.70
9837;DHT22;4957;51.412;6.724;2022-07-18T12:55:55;45.40;18.10
9837;DHT22;4957;51.412;6.724;2022-07-18T12:58:21;45.60;18.20
9837;DHT22;4957;51.412;6.724;2022-07-18T13:00:47;45.60;17.90
9837;DHT22;4957;51.412;6.724;2022-07-18T13:03:14;45.80;17.90
9837;DHT22;4957;51.412;6.724;2022-07-18T13:05:40;45.80;18.20
9837;DHT22;4957;51.412;6.724;2022-07-18T13:08:06;45.90;17.80
9837;DHT22;4957;51.412;6.724;2022-07-18T13:10:33;45.90;17.70
9837;DHT22;4957;51.412;6.724;2022-07-18T13:13:02;46.00;17.50
9837;DHT22;4957;51.412;6.724;2022-07-18T13:15:29;46.00;17.40
9837;DHT22;4957;51.412;6.724;2022-07-18T13:17:55;46.00;17.20
9837;DHT22;4957;51.412;6.724;2022-07-18T13:20:21;46.00;17.50
9837;DHT22;4957;51.412;6.724;2022-07-18T13:22:47;46.00;17.30
9837;DHT22;4957;51.412;6.724;2022-07-18T13:25:13;46.00;17.30
9837;DHT22;4957;51.412;6.724;2022-07-18T13:27:38;46.00;17.20
9837;DHT22;4957;51.412;6.724;2022-07-18T13:30:06;45.90;17.40
9837;DHT22;4957;51.412;6.724;2022-07-18T13:32:34;45.90;17.30
9837;DHT22;4957;51.412;6.724;2022-07-18T13:35:00;45.90;17.50
9837;DHT22;4957;51.412;6.724;2022-07-18T13:37:26;45.80;17.70
9837;DHT22;4957;51.412;6.724;2022-07-18T13:39:52;45.80;17.70
9837;DHT22;4957;51.412;6.724;2022-07-18T13:42:18;45.80;17.50
9837;DHT22;4957;51.412;6.724;2022-07-18T13:44:44;45.70;17.70
9837;DHT22;4957;51.412;6.724;2022-07-18T13:47:13;45.60;17.60
9837;DHT22;4957;51.412;6.724;2022-07-18T13:49:39;45.60;18.00
9837;DHT22;4957;51.412;6.724;2022-07-18T13:52:05;45.50;17.80
9837;DHT22;4957;51.412;6.724;2022-07-18T13:54:31;45.40;17.70
9837;DHT22;4957;51.412;6.724;2022-07-18T13:56:57;45.30;17.60
9837;DHT22;4957;51.412;6.724;2022-07-18T13:59:23;45.30;17.60
9837;DHT22;4957;51.412;6.724;2022-07-18T14:01:48;45.20;18.10
9837;DHT22;4957;51.412;6.724;2022-07-18T14:04:18;45.10;17.90
9837;DHT22;4957;51.412;6.724;2022-07-18T14:06:44;45.00;17.90
9837;DHT22;4957;51.412;6.724;2022-07-18T14:09:10;44.90;18.00
9837;DHT22;4957;51.412;6.724;2022-07-18T14:11:36;44.90;17.90
9837;DHT22;4957;51.412;6.724;2022-07-18T14:14:02;44.80;18.00
9837;DHT22;4957;51.412;6.724;2022-07-18T14:16:29;44.70;17.80
9837;DHT22;4957;51.412;6.724;2022-07-18T14:18:55;44.60;18.00
9837;DHT22;4957;51.412;6.724;2022-07-18T14:21:21;44.50;17.80
9837;DHT22;4957;51.412;6.724;2022-07-18T14:23:47;44.40;18.10
9837;DHT22;4957;51.412;6.724;2022-07-18T14:26:13;44.20;18.00
9837;DHT22;4957;51.412;6.724;2022-07-18T14:28:39;44.10;18.10
9837;DHT22;4957;51.412;6.724;2022-07-18T14:31:05;43.90;18.50
9837;DHT22;4957;51.412;6.724;2022-07-18T14:33:31;43.80;18.40
9837;DHT22;4957;51.412;6.724;2022-07-18T14:35:56;43.70;18.50
9837;DHT22;4957;51.412;6.724;2022-07-18T14:38:22;43.60;18.60
9837;DHT22;4957;51.412;6.724;2022-07-18T14:40:48;43.40;18.30
9837;DHT22;4957;51.412;6.724;2022-07-18T14:43:14;43.10;18.60
9837;DHT22;4957;51.412;6.724;2022-07-18T14:45:40;42.90;18.80
9837;DHT22;4957;51.412;6.724;2022-07-18T14:48:05;42.80;18.80
9837;DHT22;4957;51.412;6.724;2022-07-18T14:50:31;42.70;18.70
9837;DHT22;4957;51.412;6.724;2022-07-18T14:52:57;42.50;18.60
9837;DHT22;4957;51.412;6.724;2022-07-18T14:55:23;42.30;18.80
9837;DHT22;4957;51.412;6.724;2022-07-18T14:57:48;42.10;19.10
9837;DHT22;4957;51.412;6.724;2022-07-18T15:00:14;42.10;19.40
9837;DHT22;4957;51.412;6.724;2022-07-18T15:02:40;42.10;19.10
9837;DHT22;4957;51.412;6.724;2022-07-18T15:05:06;42.00;19.00
9837;DHT22;4957;51.412;6.724;2022-07-18T15:07:33;41.80;19.20
9837;DHT22;4957;51.412;6.724;2022-07-18T15:09:59;41.70;19.10
9837;DHT22;4957;51.412;6.724;2022-07-18T15:12:24;41.60;19.20
9837;DHT22;4957;51.412;6.724;2022-07-18T15:14:50;41.60;19.20
9837;DHT22;4957;51.412;6.724;2022-07-18T15:17:16;41.40;19.10
9837;DHT22;4957;51.412;6.724;2022-07-18T15:19:42;41.20;19.40
9837;DHT22;4957;51.412;6.724;2022-07-18T15:22:07;41.20;19.50
9837;DHT22;4957;51.412;6.724;2022-07-18T15:24:34;41.10;19.50
9837;DHT22;4957;51.412;6.724;2022-07-18T15:27:00;41.20;19.50
9837;DHT22;4957;51.412;6.724;2022-07-18T15:29:26;41.10;19.50
9837;DHT22;4957;51.412;6.724;2022-07-18T15:31:53;41.10;19.60
9837;DHT22;4957;51.412;6.724;2022-07-18T15:34:18;41.20;19.50
9837;DHT22;4957;51.412;6.724;2022-07-18T15:36:44;41.10;19.70
9837;DHT22;4957;51.412;6.724;2022-07-18T15:39:10;41.10;19.60
9837;DHT22;4957;51.412;6.724;2022-07-18T15:41:36;41.20;19.80
9837;DHT22;4957;51.412;6.724;2022-07-18T15:44:01;41.20;19.50
9837;DHT22;4957;51.412;6.724;2022-07-18T15:46:27;41.20;19.80
9837;DHT22;4957;51.412;6.724;2022-07-18T15:48:53;41.20;19.90
9837;DHT22;4957;51.412;6.724;2022-07-18T15:51:19;41.30;19.90
9837;DHT22;4957;51.412;6.724;2022-07-18T15:53:44;41.40;19.90
9837;DHT22;4957;51.412;6.724;2022-07-18T15:56:10;41.50;19.70
9837;DHT22;4957;51.412;6.724;2022-07-18T15:58:36;41.50;19.60
9837;DHT22;4957;51.412;6.724;2022-07-18T16:01:02;41.60;19.70
9837;DHT22;4957;51.412;6.724;2022-07-18T16:03:28;41.60;19.70
9837;DHT22;4957;51.412;6.724;2022-07-18T16:05:54;41.60;19.70
9837;DHT22;4957;51.412;6.724;2022-07-18T16:08:24;41.40;19.80
9837;DHT22;4957;51.412;6.724;2022-07-18T16:10:50;41.40;19.50
9837;DHT22;4957;51.412;6.724;2022-07-18T16:13:15;41.40;19.50
9837;DHT22;4957;51.412;6.724;2022-07-18T16:15:41;41.40;19.70
9837;DHT22;4957;51.412;6.724;2022-07-18T16:18:09;41.40;19.60
9837;DHT22;4957;51.412;6.724;2022-07-18T16:20:34;41.20;19.50
9837;DHT22;4957;51.412;6.724;2022-07-18T16:23:00;41.10;19.60
9837;DHT22;4957;51.412;6.724;2022-07-18T16:25:26;41.00;19.40
9837;DHT22;4957;51.412;6.724;2022-07-18T16:27:52;41.00;19.50
9837;DHT22;4957;51.412;6.724;2022-07-18T16:30:18;40.90;19.60
9837;DHT22;4957;51.412;6.724;2022-07-18T16:32:43;40.80;19.70
9837;DHT22;4957;51.412;6.724;2022-07-18T16:35:09;40.90;19.80
9837;DHT22;4957;51.412;6.724;2022-07-18T16:37:35;41.00;19.80
9837;DHT22;4957;51.412;6.724;2022-07-18T16:40:02;41.00;19.70
9837;DHT22;4957;51.412;6.724;2022-07-18T16:42:28;41.10;19.50
9837;DHT22;4957;51.412;6.724;2022-07-18T16:44:54;41.20;20.10
9837;DHT22;4957;51.412;6.724;2022-07-18T16:47:20;41.40;19.60
9837;DHT22;4957;51.412;6.724;2022-07-18T16:49:46;41.40;19.60
9837;DHT22;4957;51.412;6.724;2022-07-18T16:52:12;41.50;19.70
9837;DHT22;4957;51.412;6.724;2022-07-18T16:54:38;41.50;19.60
9837;DHT22;4957;51.412;6.724;2022-07-18T16:57:04;41.40;19.80
9837;DHT22;4957;51.412;6.724;2022-07-18T16:59:30;41.50;19.70
9837;DHT22;4957;51.412;6.724;2022-07-18T17:01:55;41.50;19.60
9837;DHT22;4957;51.412;6.724;2022-07-18T17:04:24;41.50;19.60
9837;DHT22;4957;51.412;6.724;2022-07-18T17:06:50;41.40;19.50
9837;DHT22;4957;51.412;6.724;2022-07-18T17:09:15;41.50;19.60